Aviation Digital Data Service (ADDS)

Output produced by METARs form (0026 UTC 27 February 2015)
found at http://www.aviationweather.gov/adds/metars/
 
KMIV 262354Z AUTO 00000KT 10SM CLR M04/M09 A3005 RMK AO2 SLP177 T10391094 10000 21044 53031
KMIV 262320Z 2700/2724 01004KT P6SM SCT080 
     FM270300 VRB02KT P6SM SCT035 BKN080 
     FM271000 34006KT P6SM BKN035 
     FM272200 32006KT P6SM SCT040